Time,TemperatureF,DewpointF,PressureIn,WindDirection,WindDirectionDegrees,WindSpeedMPH,WindSpeedGustMPH,Humidity,HourlyPrecipIn,Conditions,Clouds,dailyrainin,SolarRadiationWatts/m^2,SoftwareType,DateUTC
2013-06-24 00:11:00,72.0,66.0,29.63,East,80,14.0,16.0,82,0.00,,,0.00,0,weatherlink.com 1.10,2013-06-24 05:11:00,
2013-06-24 00:26:00,71.9,67.0,29.63,ENE,76,17.0,19.0,83,0.00,,,0.00,0,weatherlink.com 1.10,2013-06-24 05:26:00,
2013-06-24 00:42:00,71.9,67.0,29.62,East,90,16.0,21.0,83,0.00,,,0.00,0,weatherlink.com 1.10,2013-06-24 05:42:00,
2013-06-24 00:57:00,71.9,67.0,29.62,ENE,70,14.0,21.0,84,0.00,,,0.00,0,weatherlink.com 1.10,2013-06-24 05:57:00,
2013-06-24 01:12:00,71.8,67.0,29.64,NE,44,0.0,15.0,84,0.00,,,0.00,0,weatherlink.com 1.10,2013-06-24 06:12:00,
2013-06-24 01:42:00,65.9,59.0,29.72,WNW,286,21.0,32.0,78,0.05,,,0.05,0,weatherlink.com 1.10,2013-06-24 06:42:00,
2013-06-24 01:57:00,62.1,58.0,29.71,NW,305,4.0,23.0,87,0.06,,,0.06,0,weatherlink.com 1.10,2013-06-24 06:57:00,
2013-06-24 02:12:00,61.6,58.0,29.69,NNW,333,11.0,11.0,89,0.08,,,0.08,0,weatherlink.com 1.10,2013-06-24 07:12:00,
2013-06-24 02:27:00,61.5,59.0,29.65,NNE,23,0.0,10.0,91,0.08,,,0.08,0,weatherlink.com 1.10,2013-06-24 07:27:00,
2013-06-24 02:42:00,61.6,58.0,29.62,ENE,74,3.0,17.0,89,0.03,,,0.08,0,weatherlink.com 1.10,2013-06-24 07:42:00,
2013-06-24 02:57:00,61.9,58.0,29.65,NE,51,0.0,6.0,88,0.02,,,0.08,0,weatherlink.com 1.10,2013-06-24 07:57:00,
2013-06-24 03:12:00,62.1,59.0,29.70,WNW,295,0.0,7.0,88,0.00,,,0.08,0,weatherlink.com 1.10,2013-06-24 08:12:00,
2013-06-24 03:27:00,62.9,59.0,29.72,NW,311,0.0,9.0,88,0.00,,,0.08,0,weatherlink.com 1.10,2013-06-24 08:27:00,
2013-06-24 03:57:00,62.1,59.0,29.69,NNW,340,0.0,0.0,89,0.00,,,0.08,0,weatherlink.com 1.10,2013-06-24 08:57:00,
2013-06-24 04:27:00,62.2,59.0,29.73,WSW,250,0.0,0.0,90,0.02,,,0.10,0,weatherlink.com 1.10,2013-06-24 09:27:00,
2013-06-24 04:42:00,62.3,59.0,29.68,East,86,5.0,6.0,90,0.03,,,0.11,0,weatherlink.com 1.10,2013-06-24 09:42:00,
2013-06-24 04:57:00,62.2,60.0,29.71,WSW,244,0.0,5.0,91,0.03,,,0.11,0,weatherlink.com 1.10,2013-06-24 09:57:00,
2013-06-24 05:12:00,62.1,60.0,29.70,WSW,253,0.0,0.0,91,0.03,,,0.11,0,weatherlink.com 1.10,2013-06-24 10:12:00,
2013-06-24 05:42:00,62.4,60.0,29.70,South,178,0.0,0.0,91,0.00,,,0.11,0,weatherlink.com 1.10,2013-06-24 10:42:00,
2013-06-24 05:57:00,62.6,60.0,29.70,East,98,0.0,0.0,91,0.00,,,0.11,0,weatherlink.com 1.10,2013-06-24 10:57:00,
2013-06-24 06:12:00,62.6,60.0,29.68,ESE,111,0.0,4.0,91,0.00,,,0.11,0,weatherlink.com 1.10,2013-06-24 11:12:00,
2013-06-24 06:27:00,62.5,60.0,29.67,East,98,0.0,5.0,90,0.00,,,0.11,5,weatherlink.com 1.10,2013-06-24 11:27:00,
2013-06-24 06:42:00,62.4,59.0,29.68,ESE,109,0.0,4.0,89,0.00,,,0.11,19,weatherlink.com 1.10,2013-06-24 11:42:00,
2013-06-24 06:57:00,62.5,59.0,29.66,SE,129,0.0,7.0,89,0.00,,,0.11,37,weatherlink.com 1.10,2013-06-24 11:57:00,
2013-06-24 07:12:00,62.5,59.0,29.66,SSE,147,0.0,5.0,89,0.00,,,0.11,56,weatherlink.com 1.10,2013-06-24 12:12:00,
2013-06-24 07:27:00,62.4,59.0,29.65,SE,126,0.0,8.0,89,0.00,,,0.11,49,weatherlink.com 1.10,2013-06-24 12:27:00,
2013-06-24 07:42:00,62.5,59.0,29.64,East,96,3.0,8.0,89,0.00,,,0.11,62,weatherlink.com 1.10,2013-06-24 12:42:00,
2013-06-24 07:57:00,63.0,59.0,29.65,SE,127,0.0,5.0,88,0.00,,,0.11,153,weatherlink.com 1.10,2013-06-24 12:57:00,
2013-06-24 08:27:00,66.2,60.0,29.64,East,101,3.0,11.0,81,0.00,,,0.11,287,weatherlink.com 1.10,2013-06-24 13:27:00,
2013-06-24 09:13:00,71.7,61.0,29.64,SSE,153,7.0,13.0,68,0.00,,,0.11,410,weatherlink.com 1.10,2013-06-24 14:13:00,
2013-06-24 09:28:00,73.2,62.0,29.63,SE,142,8.0,14.0,67,0.00,,,0.11,461,weatherlink.com 1.10,2013-06-24 14:28:00,
2013-06-24 09:43:00,74.4,62.0,29.64,SSE,159,5.0,14.0,65,0.00,,,0.11,512,weatherlink.com 1.10,2013-06-24 14:43:00,
2013-06-24 09:58:00,75.5,62.0,29.62,SSE,157,1.0,15.0,64,0.00,,,0.11,564,weatherlink.com 1.10,2013-06-24 14:58:00,
2013-06-24 10:13:00,76.7,62.0,29.61,SE,138,6.0,12.0,61,0.00,,,0.11,598,weatherlink.com 1.10,2013-06-24 15:13:00,
2013-06-24 10:28:00,78.4,63.0,29.61,SSE,150,6.0,13.0,59,0.00,,,0.11,633,weatherlink.com 1.10,2013-06-24 15:28:00,
2013-06-24 10:43:00,79.8,64.0,29.60,SSE,167,7.0,11.0,58,0.00,,,0.11,680,weatherlink.com 1.10,2013-06-24 15:43:00,
2013-06-24 10:58:00,80.5,63.0,29.60,South,178,3.0,14.0,55,0.00,,,0.11,733,weatherlink.com 1.10,2013-06-24 15:58:00,
2013-06-24 11:13:00,81.4,64.0,29.60,South,180,5.0,16.0,55,0.00,,,0.11,710,weatherlink.com 1.10,2013-06-24 16:13:00,
2013-06-24 11:28:00,82.9,61.0,29.60,South,185,5.0,11.0,48,0.00,,,0.11,784,weatherlink.com 1.10,2013-06-24 16:28:00,
2013-06-24 11:43:00,83.9,62.0,29.60,South,169,5.0,14.0,48,0.00,,,0.11,858,weatherlink.com 1.10,2013-06-24 16:43:00,
2013-06-24 11:58:00,84.2,61.0,29.60,SSE,167,5.0,12.0,45,0.00,,,0.11,849,weatherlink.com 1.10,2013-06-24 16:58:00,
2013-06-24 12:13:00,85.5,62.0,29.60,South,175,0.0,11.0,45,0.00,,,0.11,896,weatherlink.com 1.10,2013-06-24 17:13:00,
2013-06-24 12:28:00,86.4,61.0,29.59,SSE,161,0.0,10.0,42,0.00,,,0.11,872,weatherlink.com 1.10,2013-06-24 17:28:00,
2013-06-24 12:43:00,86.3,60.0,29.59,SSW,211,0.0,9.0,41,0.00,,,0.11,900,weatherlink.com 1.10,2013-06-24 17:43:00,
2013-06-24 13:13:00,88.4,60.0,29.58,SSW,200,2.0,9.0,39,0.00,,,0.11,949,weatherlink.com 1.10,2013-06-24 18:13:00,
2013-06-24 13:28:00,88.7,62.0,29.58,South,171,2.0,11.0,41,0.00,,,0.11,933,weatherlink.com 1.10,2013-06-24 18:28:00,
2013-06-24 13:44:00,89.0,63.0,29.57,South,179,4.0,12.0,42,0.00,,,0.11,868,weatherlink.com 1.10,2013-06-24 18:44:00,
2013-06-24 13:59:00,90.0,62.0,29.57,South,186,9.0,12.0,39,0.00,,,0.11,940,weatherlink.com 1.10,2013-06-24 18:59:00,
2013-06-24 14:14:00,89.1,62.0,29.57,SSW,194,5.0,12.0,41,0.00,,,0.11,847,weatherlink.com 1.10,2013-06-24 19:14:00,
2013-06-24 14:29:00,89.7,61.0,29.56,SE,138,2.0,9.0,38,0.00,,,0.11,816,weatherlink.com 1.10,2013-06-24 19:29:00,
2013-06-24 14:59:00,89.3,60.0,29.55,SSW,213,8.0,11.0,38,0.00,,,0.11,388,weatherlink.com 1.10,2013-06-24 19:59:00,
2013-06-24 15:14:00,90.2,61.0,29.54,South,182,2.0,8.0,38,0.00,,,0.11,661,weatherlink.com 1.10,2013-06-24 20:14:00,
2013-06-24 15:29:00,90.5,59.0,29.53,East,88,0.0,9.0,35,0.00,,,0.11,830,weatherlink.com 1.10,2013-06-24 20:29:00,
2013-06-24 15:59:00,90.7,60.0,29.52,East,85,2.0,7.0,35,0.00,,,0.11,538,weatherlink.com 1.10,2013-06-24 20:59:00,
2013-06-24 16:14:00,91.3,61.0,29.52,East,95,0.0,5.0,36,0.00,,,0.11,443,weatherlink.com 1.10,2013-06-24 21:14:00,
2013-06-24 16:29:00,92.3,60.0,29.51,West,271,0.0,1.0,34,0.00,,,0.11,339,weatherlink.com 1.10,2013-06-24 21:29:00,
2013-06-24 16:44:00,92.5,59.0,29.50,WSW,248,0.0,8.0,33,0.00,,,0.11,485,weatherlink.com 1.10,2013-06-24 21:44:00,
2013-06-24 16:59:00,92.6,61.0,29.50,SW,233,6.0,11.0,35,0.00,,,0.11,650,weatherlink.com 1.10,2013-06-24 21:59:00,
2013-06-24 17:14:00,94.2,61.0,29.50,SW,230,7.0,7.0,33,0.00,,,0.11,554,weatherlink.com 1.10,2013-06-24 22:14:00,
2013-06-24 17:29:00,92.3,61.0,29.50,WSW,246,1.0,12.0,35,0.00,,,0.11,288,weatherlink.com 1.10,2013-06-24 22:29:00,
2013-06-24 17:44:00,91.3,62.0,29.50,WSW,240,2.0,14.0,37,0.00,,,0.11,323,weatherlink.com 1.10,2013-06-24 22:44:00,
2013-06-24 17:59:00,93.0,62.0,29.50,WSW,246,5.0,13.0,35,0.00,,,0.11,606,weatherlink.com 1.10,2013-06-24 22:59:00,
2013-06-24 18:14:00,92.5,59.0,29.48,SW,236,6.0,8.0,33,0.00,,,0.11,357,weatherlink.com 1.10,2013-06-24 23:14:00,
2013-06-24 18:29:00,91.4,58.0,29.48,SW,224,0.0,6.0,33,0.00,,,0.11,332,weatherlink.com 1.10,2013-06-24 23:29:00,
2013-06-24 18:44:00,92.8,59.0,29.47,SSW,195,0.0,9.0,32,0.00,,,0.11,471,weatherlink.com 1.10,2013-06-24 23:44:00,
2013-06-24 18:59:00,93.1,59.0,29.47,West,281,0.0,6.0,32,0.00,,,0.11,367,weatherlink.com 1.10,2013-06-24 23:59:00,
2013-06-24 19:14:00,93.2,58.0,29.47,West,268,2.0,5.0,31,0.00,,,0.11,295,weatherlink.com 1.10,2013-06-25 00:14:00,
2013-06-24 19:29:00,92.9,58.0,29.47,WSW,240,0.0,7.0,31,0.00,,,0.11,241,weatherlink.com 1.10,2013-06-25 00:29:00,
2013-06-24 20:29:00,89.7,62.0,29.46,WNW,297,0.0,0.0,39,0.00,,,0.11,56,weatherlink.com 1.10,2013-06-25 01:29:00,
2013-06-24 20:44:00,86.0,63.0,29.46,NNE,32,0.0,1.0,47,0.00,,,0.11,30,weatherlink.com 1.10,2013-06-25 01:44:00,
2013-06-24 20:59:00,82.9,64.0,29.47,ENE,74,0.0,3.0,53,0.00,,,0.11,14,weatherlink.com 1.10,2013-06-25 01:59:00,
2013-06-24 21:14:00,81.2,66.0,29.47,ENE,71,3.0,7.0,60,0.00,,,0.11,0,weatherlink.com 1.10,2013-06-25 02:14:00,
2013-06-24 21:29:00,79.7,67.0,29.48,ESE,107,0.0,9.0,65,0.00,,,0.11,0,weatherlink.com 1.10,2013-06-25 02:29:00,
2013-06-24 21:44:00,78.3,66.0,29.49,East,84,8.0,8.0,67,0.00,,,0.11,0,weatherlink.com 1.10,2013-06-25 02:44:00,
2013-06-24 22:14:00,82.0,59.0,29.51,SE,126,6.0,11.0,45,0.00,,,0.11,0,weatherlink.com 1.10,2013-06-25 03:14:00,
2013-06-24 22:44:00,80.4,59.0,29.53,SSE,153,6.0,14.0,49,0.00,,,0.11,0,weatherlink.com 1.10,2013-06-25 03:44:00,
2013-06-24 23:14:00,80.2,63.0,29.52,South,188,8.0,24.0,56,0.00,,,0.11,0,weatherlink.com 1.10,2013-06-25 04:14:00,
2013-06-24 23:29:00,80.6,63.0,29.52,SW,217,13.0,24.0,55,0.00,,,0.11,0,weatherlink.com 1.10,2013-06-25 04:29:00,
2013-06-24 23:44:00,80.1,62.0,29.51,South,183,25.0,25.0,55,0.00,,,0.11,0,weatherlink.com 1.10,2013-06-25 04:44:00,
2013-06-24 23:59:00,79.6,62.0,29.52,SSW,199,13.0,24.0,56,0.00,,,0.11,0,weatherlink.com 1.10,2013-06-25 04:59:00,